Accueil
METAR-TAF:

METAR-TAF

Aéroports :

Londres, Angleterre

Aéroport de Londres-City

latitude: 51-30N, longitude: 000-03E, altitude: 5 m

Observation

Le bulletin a été fait il y a 43 minutes, à 08:20 UTC
Vent 9 kt de ouest/sud-ouest
Température 8°C
Humidité 61%
Pression 1020 hPa
Visibilité 10 km ou plus

METAR: EGLC 270820Z AUTO 25009KT 9999 NCD 08/01 Q1020

Heure: 10:03 (09:03 UTC)

Prévision

Le bulletin a été fait il y a 1 heure et 5 minutes, à 07:58 UTC
Prévision valable du 27 à 09 UTC au 27 à 18 UTC
Vent 9 kt de ouest
Visibilité 10 km ou plus
Quelques nuages à une hauteur de 4000 ft
Probabilité 30% :
Temporairement
du 27 à 13 UTC au 27 à 18 UTC
Visibilité: 7000 m
averses de pluie

TAF: EGLC 270758Z 2709/2718 28009KT 9999 FEW040 PROB30 TEMPO 2713/2718 7000 SHRA

Observations et prévisions météorologiques de plus de 4000 aéroports (messages METAR et TAF).

Les stations disponibles sont représentées par des disques jaunes et rouges sur la carte.

Passer la souris dessus pour voir le nom de la station.

Cliquer dessus pour voir les observations et prévisions météorologiques.

Pour changer de carte: cliquez sur les boutons verts avec une croix noire pour zoomer, sur le bouton vert avec un tiret pour effectuer un zoom arrière, ou sur les flèches vertes pour les cartes adjacentes.


METAR-TAF: